createdAt,value
2018-11-23T00:00:27.502Z,3.37
2018-11-23T00:02:56.499Z,3.32
2018-11-23T00:05:24.639Z,3.18
2018-11-23T00:07:53.368Z,3.16
2018-11-23T00:10:22.867Z,3.17
2018-11-23T00:12:51.105Z,3.17
2018-11-23T00:15:20.444Z,3.17
2018-11-23T00:17:48.631Z,3.17
2018-11-23T00:20:19.042Z,3.18
2018-11-23T00:22:47.195Z,3.16
2018-11-23T00:25:17.545Z,3.13
2018-11-23T00:27:45.828Z,3.14
2018-11-23T00:30:19.112Z,3.15
2018-11-23T00:32:47.614Z,3.13
2018-11-23T00:35:18.454Z,3.14
2018-11-23T00:37:47.127Z,3.16
2018-11-23T00:40:19.300Z,3.14
2018-11-23T00:42:47.598Z,3.11
2018-11-23T00:45:15.775Z,3.11
2018-11-23T00:47:44.731Z,3.11
2018-11-23T00:50:14.181Z,3.17
2018-11-23T00:52:42.928Z,3.07
2018-11-23T00:55:12.951Z,3.05
2018-11-23T00:57:41.175Z,3.05
2018-11-23T01:00:18.004Z,2.97
2018-11-23T01:02:46.378Z,2.89
2018-11-23T01:05:15.995Z,2.91
2018-11-23T01:07:44.673Z,2.81
2018-11-23T01:10:13.980Z,2.85
2018-11-23T01:12:42.863Z,2.78
2018-11-23T01:15:11.559Z,2.80
2018-11-23T01:17:39.762Z,2.69
2018-11-23T01:20:14.571Z,2.62
2018-11-23T01:22:42.939Z,2.58
2018-11-23T01:25:12.524Z,2.55
2018-11-23T01:27:41.559Z,2.60
2018-11-23T01:30:19.257Z,2.64
2018-11-23T01:32:47.512Z,2.62
2018-11-23T01:35:15.805Z,2.57
2018-11-23T01:37:43.975Z,2.58
2018-11-23T01:40:14.703Z,2.65
2018-11-23T01:42:42.903Z,2.60
2018-11-23T01:45:11.712Z,2.59
2018-11-23T01:47:39.877Z,2.59
2018-11-23T01:50:12.742Z,2.63
2018-11-23T01:52:40.895Z,2.61
2018-11-23T01:55:10.118Z,2.61
2018-11-23T01:57:38.991Z,2.60
2018-11-23T02:00:08.799Z,2.60
2018-11-23T02:02:36.934Z,2.58
2018-11-23T02:05:05.495Z,2.57
2018-11-23T02:07:33.642Z,2.45
2018-11-23T02:10:01.790Z,2.39
2018-11-23T02:12:29.938Z,2.40
2018-11-23T02:14:58.074Z,2.47
2018-11-23T02:17:26.231Z,2.50
2018-11-23T02:19:56.138Z,2.52
2018-11-23T02:22:24.294Z,2.47
2018-11-23T02:24:52.805Z,2.39
2018-11-23T02:27:21.290Z,2.28
2018-11-23T02:29:49.448Z,2.29
2018-11-23T02:32:17.690Z,2.25
2018-11-23T02:34:45.831Z,2.19
2018-11-23T02:37:14.199Z,2.19
2018-11-23T02:39:42.376Z,2.23
2018-11-23T02:42:10.503Z,2.24
2018-11-23T02:44:38.618Z,2.24
2018-11-23T02:47:06.938Z,2.20
2018-11-23T02:49:35.262Z,2.12
2018-11-23T02:52:03.390Z,2.18
2018-11-23T02:54:31.897Z,2.20
2018-11-23T02:57:00.036Z,2.09
2018-11-23T02:59:28.282Z,2.04
2018-11-23T03:01:56.522Z,2.08
2018-11-23T03:04:24.638Z,2.11
2018-11-23T03:06:52.774Z,2.06
2018-11-23T03:09:20.895Z,2.13
2018-11-23T03:11:49.037Z,2.12
2018-11-23T03:14:17.158Z,2.15
2018-11-23T03:16:45.290Z,2.10
2018-11-23T03:19:13.435Z,2.04
2018-11-23T03:21:41.615Z,2.04
2018-11-23T03:24:09.759Z,2.02
2018-11-23T03:26:37.891Z,2.05
2018-11-23T03:29:06.275Z,2.11
2018-11-23T03:31:34.394Z,2.05
2018-11-23T03:34:02.537Z,2.06
2018-11-23T03:36:30.697Z,2.03
2018-11-23T03:38:58.867Z,2.02
2018-11-23T03:41:27.051Z,2.00
2018-11-23T03:43:55.224Z,2.03
2018-11-23T03:46:23.374Z,2.10
2018-11-23T03:48:51.535Z,2.06
2018-11-23T03:51:19.691Z,2.05
2018-11-23T03:53:47.856Z,2.01
2018-11-23T03:56:16.008Z,2.04
2018-11-23T03:58:44.167Z,2.08
2018-11-23T04:01:12.323Z,2.10
2018-11-23T04:03:40.486Z,2.11
2018-11-23T04:06:08.636Z,2.10
2018-11-23T04:08:36.795Z,2.03
2018-11-23T04:11:05.165Z,1.97
2018-11-23T04:13:33.323Z,1.91
2018-11-23T04:16:01.485Z,1.91
2018-11-23T04:18:29.648Z,1.88
2018-11-23T04:21:02.863Z,1.90
2018-11-23T04:23:32.291Z,1.87
2018-11-23T04:26:00.439Z,1.87
2018-11-23T04:28:28.603Z,1.84
2018-11-23T04:30:57.000Z,1.85
2018-11-23T04:33:25.683Z,1.88
2018-11-23T04:35:54.076Z,1.96
2018-11-23T04:38:22.443Z,1.93
2018-11-23T04:40:50.617Z,1.97
2018-11-23T04:43:18.796Z,1.89
2018-11-23T04:45:47.020Z,1.94
2018-11-23T04:48:15.226Z,1.90
2018-11-23T04:50:43.435Z,1.93
2018-11-23T04:53:11.602Z,1.94
2018-11-23T04:55:39.783Z,1.96
2018-11-23T04:58:08.047Z,2.00
2018-11-23T05:00:36.218Z,2.05
2018-11-23T05:03:04.398Z,2.08
2018-11-23T05:05:32.589Z,2.04
2018-11-23T05:08:00.755Z,2.00
2018-11-23T05:10:28.955Z,2.02
2018-11-23T05:12:57.119Z,1.98
2018-11-23T05:15:25.299Z,2.00
2018-11-23T05:17:53.505Z,2.00
2018-11-23T05:20:21.684Z,2.04
2018-11-23T05:22:49.851Z,2.08
2018-11-23T05:25:19.008Z,2.12
2018-11-23T05:27:47.178Z,2.11
2018-11-23T05:30:19.669Z,2.10
2018-11-23T05:32:47.840Z,2.16
2018-11-23T05:35:16.811Z,2.18
2018-11-23T05:37:45.023Z,2.21
2018-11-23T05:40:15.110Z,2.28
2018-11-23T05:42:43.275Z,2.33
2018-11-23T05:45:13.759Z,2.29
2018-11-23T05:47:41.931Z,2.30
2018-11-23T05:50:13.749Z,2.36
2018-11-23T05:52:42.851Z,2.38
2018-11-23T05:55:11.635Z,2.44
2018-11-23T05:57:40.123Z,2.50
2018-11-23T06:00:11.770Z,2.59
2018-11-23T06:02:39.923Z,2.57
2018-11-23T06:05:08.547Z,2.60
2018-11-23T06:07:36.747Z,2.65
2018-11-23T06:10:06.856Z,2.72
2018-11-23T06:12:35.099Z,2.79
2018-11-23T06:15:03.383Z,2.81
2018-11-23T06:17:31.555Z,2.84
2018-11-23T06:19:59.704Z,2.89
2018-11-23T06:22:27.887Z,2.91
2018-11-23T06:24:56.035Z,2.96
2018-11-23T06:27:24.267Z,3.03
2018-11-23T06:29:52.419Z,3.06
2018-11-23T06:32:32.091Z,3.16
2018-11-23T06:35:00.239Z,3.14
2018-11-23T06:37:28.395Z,3.21
2018-11-23T06:39:56.555Z,3.23
2018-11-23T06:42:24.778Z,3.31
2018-11-23T06:44:52.963Z,3.30
2018-11-23T06:47:21.259Z,3.30
2018-11-23T06:49:49.442Z,3.30
2018-11-23T06:52:17.611Z,3.33
2018-11-23T06:54:46.016Z,3.35
2018-11-23T06:57:14.219Z,3.35
2018-11-23T06:59:42.391Z,3.36
2018-11-23T07:02:10.555Z,3.40
2018-11-23T07:04:38.736Z,3.42
2018-11-23T07:07:06.911Z,3.44
2018-11-23T07:09:35.087Z,3.47
2018-11-23T07:12:03.295Z,3.44
2018-11-23T07:14:31.474Z,3.43
2018-11-23T07:16:59.643Z,3.43
2018-11-23T07:19:27.823Z,3.49
2018-11-23T07:21:56.095Z,3.54
2018-11-23T07:24:24.276Z,3.57
2018-11-23T07:26:52.436Z,3.53
2018-11-23T07:29:20.632Z,3.52
2018-11-23T07:31:48.800Z,3.53
2018-11-23T07:34:16.969Z,3.54
2018-11-23T07:36:45.152Z,3.56
2018-11-23T07:40:23.762Z,3.58
2018-11-23T07:42:52.246Z,3.40
2018-11-23T07:45:20.519Z,3.49
2018-11-23T07:47:48.680Z,3.52
2018-11-23T07:50:16.843Z,3.61
2018-11-23T07:52:45.007Z,3.67
2018-11-23T07:55:13.640Z,3.70
2018-11-23T07:57:42.021Z,3.72
2018-11-23T08:00:13.879Z,3.75
2018-11-23T08:02:42.447Z,3.77
2018-11-23T08:05:12.463Z,3.81
2018-11-23T08:07:40.633Z,3.81
2018-11-23T08:10:10.530Z,3.81
2018-11-23T08:12:39.351Z,3.85
2018-11-23T08:15:13.953Z,3.87
2018-11-23T08:17:42.163Z,3.89
2018-11-23T08:20:12.376Z,3.92
2018-11-23T08:22:40.859Z,3.95
2018-11-23T08:25:10.346Z,3.98
2018-11-23T08:27:38.847Z,4.01
2018-11-23T08:30:10.763Z,4.01
2018-11-23T08:32:39.053Z,4.02
2018-11-23T08:35:07.247Z,4.03
2018-11-23T08:37:35.459Z,4.04
2018-11-23T08:40:04.011Z,4.09
2018-11-23T08:42:32.180Z,4.12
2018-11-23T08:45:00.448Z,4.16
2018-11-23T08:47:28.606Z,4.16
2018-11-23T08:49:56.755Z,4.23
2018-11-23T08:52:25.043Z,4.28
2018-11-23T08:54:53.255Z,4.31
2018-11-23T08:57:21.432Z,4.34
2018-11-23T08:59:49.579Z,4.32
2018-11-23T09:02:17.823Z,4.33
2018-11-23T09:04:45.999Z,4.36
2018-11-23T09:07:14.167Z,4.34
2018-11-23T09:09:42.327Z,4.37
2018-11-23T09:12:10.471Z,4.40
2018-11-23T09:14:38.631Z,4.45
2018-11-23T09:17:06.796Z,4.49
2018-11-23T09:19:35.105Z,4.55
2018-11-23T09:22:03.277Z,4.60
2018-11-23T09:24:31.435Z,4.65
2018-11-23T09:26:59.631Z,4.69
2018-11-23T09:29:27.839Z,4.76
2018-11-23T09:31:56.182Z,4.83
2018-11-23T09:34:24.393Z,4.85
2018-11-23T09:36:52.542Z,4.83
2018-11-23T09:39:20.695Z,4.84
2018-11-23T09:41:48.867Z,4.85
2018-11-23T09:44:17.156Z,4.90
2018-11-23T09:46:45.319Z,4.91
2018-11-23T09:49:13.507Z,4.92
2018-11-23T09:51:41.823Z,4.97
2018-11-23T09:54:09.995Z,5.01
2018-11-23T09:56:38.206Z,5.02
2018-11-23T09:59:06.391Z,5.07
2018-11-23T10:01:34.547Z,5.05
2018-11-23T10:04:02.732Z,5.08
2018-11-23T10:06:30.892Z,5.06
2018-11-23T10:08:59.065Z,5.15
2018-11-23T10:11:27.223Z,5.03
2018-11-23T10:13:55.395Z,5.07
2018-11-23T10:16:23.555Z,5.12
2018-11-23T10:18:51.830Z,5.20
2018-11-23T10:21:19.987Z,5.26
2018-11-23T10:23:48.183Z,5.35
2018-11-23T10:26:16.347Z,5.35
2018-11-23T10:28:44.518Z,5.40
2018-11-23T10:31:12.685Z,5.45
2018-11-23T10:33:40.859Z,5.47
2018-11-23T10:36:09.051Z,5.49
2018-11-23T10:38:37.235Z,5.50
2018-11-23T10:41:05.719Z,5.49
2018-11-23T10:43:34.433Z,5.49
2018-11-23T10:46:03.417Z,5.50
2018-11-23T10:48:31.600Z,5.54
2018-11-23T10:50:59.802Z,5.58
2018-11-23T10:53:27.947Z,5.59
2018-11-23T10:55:56.143Z,5.61
2018-11-23T10:58:24.358Z,5.59
2018-11-23T11:00:57.952Z,5.61
2018-11-23T11:03:32.596Z,5.60
2018-11-23T11:06:08.235Z,5.61
2018-11-23T11:08:36.399Z,5.65
2018-11-23T11:11:05.048Z,5.61
2018-11-23T11:13:33.336Z,5.62
2018-11-23T11:16:01.620Z,5.61
2018-11-23T11:18:29.822Z,5.62
2018-11-23T11:20:58.615Z,5.63
2018-11-23T11:23:26.759Z,5.64
2018-11-23T11:25:54.963Z,5.67
2018-11-23T11:28:23.380Z,5.62
2018-11-23T11:30:51.620Z,5.59
2018-11-23T11:33:19.895Z,5.59
2018-11-23T11:35:48.051Z,5.62
2018-11-23T11:38:16.344Z,5.65
2018-11-23T11:40:44.530Z,5.69
2018-11-23T11:43:12.699Z,5.71
2018-11-23T11:45:40.890Z,5.72
2018-11-23T11:48:09.055Z,5.69
2018-11-23T11:50:37.213Z,5.69
2018-11-23T11:53:05.591Z,5.70
2018-11-23T11:55:33.765Z,5.83
2018-11-23T11:58:01.979Z,5.82
2018-11-23T12:00:30.147Z,5.86
2018-11-23T12:02:58.319Z,5.78
2018-11-23T12:05:26.487Z,5.79
2018-11-23T12:07:54.871Z,5.81
2018-11-23T12:10:24.779Z,5.81
2018-11-23T12:12:53.080Z,5.82
2018-11-23T12:15:21.348Z,5.85
2018-11-23T12:17:49.523Z,5.87
2018-11-23T12:20:19.219Z,5.90
2018-11-23T12:22:47.824Z,5.89
2018-11-23T12:25:16.182Z,5.87
2018-11-23T12:27:44.347Z,5.89
2018-11-23T12:30:14.575Z,5.92
2018-11-23T12:32:43.582Z,5.96
2018-11-23T12:35:13.743Z,6.04
2018-11-23T12:37:41.987Z,6.07
2018-11-23T12:40:11.963Z,6.12
2018-11-23T12:42:40.283Z,6.09
2018-11-23T12:45:10.291Z,6.07
2018-11-23T12:47:38.564Z,6.06
2018-11-23T12:50:09.319Z,6.08
2018-11-23T12:52:37.578Z,6.08
2018-11-23T12:55:09.287Z,6.08
2018-11-23T12:57:37.459Z,6.10
2018-11-23T13:00:09.552Z,6.09
2018-11-23T13:02:37.715Z,6.07
2018-11-23T13:05:06.259Z,6.05
2018-11-23T13:07:34.431Z,6.07
2018-11-23T13:10:02.599Z,6.07
2018-11-23T13:12:30.819Z,6.05
2018-11-23T13:14:58.992Z,6.07
2018-11-23T13:17:27.200Z,6.07
2018-11-23T13:19:55.371Z,6.09
2018-11-23T13:22:23.527Z,6.11
2018-11-23T13:24:51.950Z,6.10
2018-11-23T13:27:20.103Z,6.13
2018-11-23T13:29:48.403Z,6.13
2018-11-23T13:32:16.975Z,6.12
2018-11-23T13:34:45.163Z,6.13
2018-11-23T13:37:13.527Z,6.17
2018-11-23T13:39:41.924Z,6.19
2018-11-23T13:42:10.130Z,6.22
2018-11-23T13:44:38.320Z,6.24
2018-11-23T13:47:06.758Z,6.22
2018-11-23T13:49:34.952Z,6.19
2018-11-23T13:52:03.124Z,6.16
2018-11-23T13:54:31.299Z,6.15
2018-11-23T13:56:59.470Z,6.15
2018-11-23T13:59:27.649Z,6.16
2018-11-23T14:01:55.896Z,6.16
2018-11-23T14:04:24.071Z,6.20
2018-11-23T14:06:52.550Z,6.18
2018-11-23T14:09:20.731Z,6.14
2018-11-23T14:11:48.900Z,6.07
2018-11-23T14:14:17.087Z,6.06
2018-11-23T14:16:45.259Z,5.98
2018-11-23T14:19:13.457Z,5.96
2018-11-23T14:21:41.866Z,5.97
2018-11-23T14:24:10.040Z,6.02
2018-11-23T14:26:38.214Z,6.01
2018-11-23T14:29:06.691Z,5.97
2018-11-23T14:31:34.875Z,5.98
2018-11-23T14:34:03.056Z,6.03
2018-11-23T14:36:31.243Z,5.98
2018-11-23T14:38:59.413Z,6.02
2018-11-23T14:41:27.593Z,6.02
2018-11-23T14:43:55.755Z,6.05
2018-11-23T14:46:23.919Z,6.06
2018-11-23T14:48:52.075Z,6.09
2018-11-23T14:51:20.242Z,6.11
2018-11-23T14:53:48.395Z,6.05
2018-11-23T14:56:16.561Z,6.00
2018-11-23T14:58:44.723Z,5.96
2018-11-23T15:01:12.888Z,5.95
2018-11-23T15:03:41.039Z,5.94
2018-11-23T15:06:09.251Z,5.97
2018-11-23T15:08:37.483Z,6.02
2018-11-23T15:11:06.152Z,5.96
2018-11-23T15:13:34.300Z,6.07
2018-11-23T15:16:02.463Z,5.97
2018-11-23T15:18:30.617Z,5.90
2018-11-23T15:20:58.791Z,5.91
2018-11-23T15:23:26.943Z,5.92
2018-11-23T15:25:55.147Z,5.97
2018-11-23T15:28:23.299Z,6.01
2018-11-23T15:30:51.463Z,6.04
2018-11-23T15:33:19.629Z,6.06
2018-11-23T15:35:47.979Z,6.07
2018-11-23T15:38:17.784Z,6.08
2018-11-23T15:40:45.959Z,6.13
2018-11-23T15:43:15.155Z,6.16
2018-11-23T15:45:43.320Z,6.05
2018-11-23T15:48:12.029Z,5.94
2018-11-23T15:50:41.114Z,5.93
2018-11-23T15:53:10.552Z,5.99
2018-11-23T15:55:39.351Z,5.98
2018-11-23T15:58:09.027Z,6.00
2018-11-23T16:00:38.518Z,6.02
2018-11-23T16:03:08.230Z,6.04
2018-11-23T16:05:36.499Z,6.06
2018-11-23T16:08:06.467Z,6.04
2018-11-23T16:10:35.831Z,6.05
2018-11-23T16:13:11.133Z,6.13
2018-11-23T16:15:33.622Z,6.12
2018-11-23T16:18:02.209Z,6.07
2018-11-23T16:20:32.523Z,6.07
2018-11-23T16:23:05.935Z,6.09
2018-11-23T16:25:34.403Z,6.10
2018-11-23T16:28:03.919Z,6.14
2018-11-23T16:30:34.335Z,6.17
2018-11-23T16:33:03.620Z,6.18
2018-11-23T16:35:35.093Z,6.20
2018-11-23T16:38:04.910Z,6.23
2018-11-23T16:40:34.411Z,6.26
2018-11-23T16:43:03.207Z,6.27
2018-11-23T16:45:35.572Z,6.25
2018-11-23T16:48:05.197Z,6.21
2018-11-23T16:50:33.467Z,6.22
2018-11-23T16:53:02.169Z,6.24
2018-11-23T16:55:30.623Z,6.25
2018-11-23T16:58:00.932Z,6.26
2018-11-23T17:00:30.264Z,6.28
2018-11-23T17:02:59.758Z,6.27
2018-11-23T17:05:31.432Z,6.29
2018-11-23T17:07:59.699Z,6.28
2018-11-23T17:10:27.876Z,6.31
2018-11-23T17:12:56.035Z,6.31
2018-11-23T17:15:25.668Z,6.33
2018-11-23T17:17:53.827Z,6.34
2018-11-23T17:20:23.444Z,6.36
2018-11-23T17:22:52.735Z,6.40
2018-11-23T17:25:21.839Z,6.43
2018-11-23T17:27:50.548Z,6.47
2018-11-23T17:30:20.235Z,6.49
2018-11-23T17:32:48.391Z,6.47
2018-11-23T17:35:16.562Z,6.46
2018-11-23T17:37:44.721Z,6.46
2018-11-23T17:40:14.589Z,6.48
2018-11-23T17:42:42.820Z,6.50
2018-11-23T17:45:16.459Z,6.60
2018-11-23T17:47:44.631Z,6.55
2018-11-23T17:50:15.571Z,6.54
2018-11-23T17:52:44.039Z,6.56
2018-11-23T17:55:36.779Z,6.54
2018-11-23T17:58:05.203Z,6.54
2018-11-23T18:00:38.855Z,6.57
2018-11-23T18:03:03.235Z,6.60
2018-11-23T18:05:32.339Z,6.64
2018-11-23T18:08:01.120Z,6.73
2018-11-23T18:10:30.540Z,6.71
2018-11-23T18:12:59.412Z,6.65
2018-11-23T18:15:28.833Z,6.71
2018-11-23T18:17:57.917Z,6.64
2018-11-23T18:20:27.124Z,6.65
2018-11-23T18:22:56.212Z,6.68
2018-11-23T18:25:26.651Z,6.76
2018-11-23T18:28:00.113Z,6.75
2018-11-23T18:30:29.393Z,6.82
2018-11-23T18:32:57.597Z,6.80
2018-11-23T18:35:25.775Z,6.73
2018-11-23T18:37:53.975Z,6.69
2018-11-23T18:40:22.160Z,6.70
2018-11-23T18:42:50.348Z,6.69
2018-11-23T18:45:18.523Z,6.72
2018-11-23T18:47:46.704Z,6.80
2018-11-23T18:50:16.968Z,6.85
2018-11-23T18:52:45.143Z,6.82
2018-11-23T18:55:18.219Z,6.79
2018-11-23T18:57:42.403Z,6.80
2018-11-23T19:00:17.248Z,6.85
2018-11-23T19:02:46.515Z,6.87
2018-11-23T19:05:23.064Z,6.92
2018-11-23T19:07:51.239Z,6.96
2018-11-23T19:10:19.423Z,6.98
2018-11-23T19:12:47.605Z,6.97
2018-11-23T19:15:25.273Z,7.08
2018-11-23T19:17:45.947Z,6.98
2018-11-23T19:20:16.024Z,7.00
2018-11-23T19:22:48.071Z,6.97
2018-11-23T19:25:16.245Z,7.00
2018-11-23T19:27:44.435Z,6.93
2018-11-23T19:30:13.823Z,6.96
2018-11-23T19:32:42.004Z,6.88
2018-11-23T19:35:10.171Z,6.91
2018-11-23T19:37:38.851Z,6.97
2018-11-23T19:40:09.594Z,6.99
2018-11-23T19:42:37.778Z,7.04
2018-11-23T19:45:07.611Z,7.15
2018-11-23T19:47:35.771Z,7.12
2018-11-23T19:50:04.368Z,7.18
2018-11-23T19:52:32.535Z,7.13
2018-11-23T19:55:00.726Z,7.11
2018-11-23T19:57:28.891Z,7.11
2018-11-23T19:59:57.077Z,7.05
2018-11-23T20:02:25.240Z,7.02
2018-11-23T20:04:53.415Z,7.12
2018-11-23T20:07:21.587Z,7.06
2018-11-23T20:09:49.768Z,7.05
2018-11-23T20:12:17.936Z,7.02
2018-11-23T20:14:46.114Z,7.03
2018-11-23T20:17:14.283Z,7.10
2018-11-23T20:19:42.451Z,7.04
2018-11-23T20:22:10.619Z,7.09
2018-11-23T20:24:38.791Z,7.04
2018-11-23T20:27:06.951Z,7.05
2018-11-23T20:29:35.486Z,6.99
2018-11-23T20:32:03.356Z,7.00
2018-11-23T20:34:31.500Z,7.15
2018-11-23T20:36:59.666Z,7.03
2018-11-23T20:39:27.844Z,7.05
2018-11-23T20:41:56.018Z,7.10
2018-11-23T20:44:24.219Z,7.16
2018-11-23T20:46:52.411Z,7.22
2018-11-23T20:49:20.600Z,7.26
2018-11-23T20:51:48.779Z,7.19
2018-11-23T20:54:16.966Z,7.25
2018-11-23T20:56:45.153Z,7.18
2018-11-23T20:59:13.355Z,7.17
2018-11-23T21:01:41.530Z,7.19
2018-11-23T21:04:09.716Z,7.15
2018-11-23T21:06:37.900Z,7.16
2018-11-23T21:09:09.121Z,7.19
2018-11-23T21:11:37.343Z,7.24
2018-11-23T21:14:06.089Z,7.27
2018-11-23T21:16:34.286Z,7.34
2018-11-23T21:19:02.475Z,7.37
2018-11-23T21:21:30.668Z,7.40
2018-11-23T21:23:58.852Z,7.49
2018-11-23T21:26:27.045Z,7.47
2018-11-23T21:28:55.223Z,7.47
2018-11-23T21:31:23.424Z,7.50
2018-11-23T21:33:51.611Z,7.51
2018-11-23T21:36:19.803Z,7.47
2018-11-23T21:38:47.983Z,7.47
2018-11-23T21:41:16.167Z,7.48
2018-11-23T21:43:44.343Z,7.49
2018-11-23T21:46:12.520Z,7.57
2018-11-23T21:48:40.679Z,7.54
2018-11-23T21:51:08.855Z,7.54
2018-11-23T21:53:37.025Z,7.62
2018-11-23T21:56:09.462Z,7.54
2018-11-23T21:58:33.654Z,7.49
2018-11-23T22:01:01.893Z,7.50
2018-11-23T22:03:30.155Z,7.55
2018-11-23T22:05:58.340Z,7.59
2018-11-23T22:08:26.506Z,7.64
2018-11-23T22:10:54.675Z,7.66
2018-11-23T22:13:22.856Z,7.73
2018-11-23T22:15:51.035Z,7.73
2018-11-23T22:18:19.223Z,7.62
2018-11-23T22:20:47.390Z,7.64
2018-11-23T22:23:15.571Z,7.61
2018-11-23T22:25:43.745Z,7.64
2018-11-23T22:28:11.931Z,7.72
2018-11-23T22:30:40.096Z,7.70
2018-11-23T22:33:08.267Z,7.66
2018-11-23T22:35:36.439Z,7.66
2018-11-23T22:38:04.745Z,7.67
2018-11-23T22:40:32.911Z,7.69
2018-11-23T22:43:01.098Z,7.69
2018-11-23T22:45:29.260Z,7.70
2018-11-23T22:47:57.433Z,7.72
2018-11-23T22:50:25.636Z,7.74
2018-11-23T22:52:53.868Z,7.76
2018-11-23T22:55:22.033Z,7.73
2018-11-23T22:57:50.215Z,7.71
2018-11-23T23:00:26.004Z,7.75
2018-11-23T23:02:54.187Z,7.68
2018-11-23T23:05:23.361Z,7.69
2018-11-23T23:07:51.584Z,7.71
2018-11-23T23:10:19.812Z,7.65
2018-11-23T23:12:48.092Z,7.65
2018-11-23T23:15:16.352Z,7.70
2018-11-23T23:17:44.737Z,7.62
2018-11-23T23:20:15.181Z,7.65
2018-11-23T23:22:43.339Z,7.61
2018-11-23T23:25:12.144Z,7.58
2018-11-23T23:27:40.310Z,7.62
2018-11-23T23:30:10.878Z,7.61
2018-11-23T23:32:39.343Z,7.62
2018-11-23T23:35:08.752Z,7.69
2018-11-23T23:37:37.108Z,7.81
2018-11-23T23:40:07.883Z,7.73
2018-11-23T23:42:36.062Z,7.71
2018-11-23T23:45:04.812Z,7.72
2018-11-23T23:47:32.971Z,7.74
2018-11-23T23:50:01.155Z,7.73
2018-11-23T23:52:29.327Z,7.73
2018-11-23T23:54:57.483Z,7.72
2018-11-23T23:57:25.647Z,7.72
2018-11-23T23:59:53.800Z,7.72
